createdAt,value
2022-09-28T00:00:00.903Z,7.4
2022-09-28T00:06:00.914Z,7.5
2022-09-28T00:07:00.905Z,7.4
2022-09-28T00:09:00.920Z,7.4
2022-09-28T00:10:00.891Z,7.3
2022-09-28T00:16:00.938Z,7.5
2022-09-28T00:18:00.988Z,7.4
2022-09-28T00:21:00.902Z,7.3
2022-09-28T00:22:00.931Z,7.4
2022-09-28T00:26:00.890Z,7.5
2022-09-28T00:27:00.902Z,7.4
2022-09-28T00:28:01.033Z,7.5
2022-09-28T00:40:00.904Z,7.6
2022-09-28T00:41:00.978Z,7.5
2022-09-28T00:44:00.900Z,7.6
2022-09-28T00:46:00.964Z,7.5
2022-09-28T00:50:00.894Z,7.6
2022-09-28T00:51:00.885Z,7.5
2022-09-28T00:52:00.950Z,7.6
2022-09-28T00:56:00.935Z,7.6
2022-09-28T00:57:00.930Z,7.5
2022-09-28T00:58:00.894Z,7.6
2022-09-28T00:59:00.897Z,7.5
2022-09-28T01:03:00.899Z,7.6
2022-09-28T01:04:00.928Z,7.5
2022-09-28T01:09:00.921Z,7.6
2022-09-28T01:10:00.951Z,7.5
2022-09-28T01:12:00.929Z,7.5
2022-09-28T01:14:00.894Z,7.6
2022-09-28T01:16:00.951Z,7.4
2022-09-28T01:17:00.939Z,7.6
2022-09-28T01:18:00.945Z,7.5
2022-09-28T01:24:00.903Z,7.6
2022-09-28T01:25:00.930Z,7.5
2022-09-28T01:27:00.900Z,7.6
2022-09-28T01:31:01.019Z,7.5
2022-09-28T01:34:00.973Z,7.5
2022-09-28T01:39:00.928Z,7.6
2022-09-28T01:41:00.930Z,7.5
2022-09-28T01:43:00.952Z,7.5
2022-09-28T01:45:00.890Z,7.6
2022-09-28T01:46:00.928Z,7.5
2022-09-28T01:47:00.907Z,7.6
2022-09-28T01:48:00.919Z,7.5
2022-09-28T01:51:00.917Z,7.6
2022-09-28T01:52:00.891Z,7.5
2022-09-28T01:54:00.929Z,7.4
2022-09-28T01:56:00.962Z,7.5
2022-09-28T01:58:00.907Z,7.6
2022-09-28T01:59:00.916Z,7.4
2022-09-28T02:00:00.934Z,7.5
2022-09-28T02:04:00.950Z,7.4
2022-09-28T02:06:00.928Z,7.4
2022-09-28T02:07:00.925Z,7.5
2022-09-28T02:09:00.897Z,7.5
2022-09-28T02:14:00.942Z,7.4
2022-09-28T02:15:00.933Z,7.7
2022-09-28T02:18:00.979Z,7.5
2022-09-28T02:21:00.901Z,7.5
2022-09-28T02:22:00.908Z,7.4
2022-09-28T02:24:00.895Z,7.5
2022-09-28T02:26:00.888Z,7.4
2022-09-28T02:28:00.905Z,7.3
2022-09-28T02:33:01.114Z,7.2
2022-09-28T02:35:00.890Z,7.1
2022-09-28T02:36:00.897Z,7
2022-09-28T02:37:00.916Z,7.2
2022-09-28T02:38:00.932Z,7
2022-09-28T02:41:00.998Z,7.1
2022-09-28T02:42:00.908Z,6.9
2022-09-28T02:44:00.888Z,6.8
2022-09-28T02:49:20.082Z,6.7
2022-09-28T02:51:00.909Z,6.7
2022-09-28T02:53:00.894Z,6.6
2022-09-28T02:54:00.919Z,6.7
2022-09-28T03:00:00.907Z,6.5
2022-09-28T03:02:00.992Z,6.6
2022-09-28T03:05:00.922Z,6.5
2022-09-28T03:06:00.938Z,6.6
2022-09-28T03:07:00.950Z,6.5
2022-09-28T03:12:00.898Z,6.6
2022-09-28T03:13:00.898Z,6.4
2022-09-28T03:15:01.027Z,6.5
2022-09-28T03:20:00.919Z,6.3
2022-09-28T03:22:00.892Z,6.5
2022-09-28T03:23:23.137Z,6.4
2022-09-28T03:27:00.907Z,6.3
2022-09-28T03:28:01.002Z,6.4
2022-09-28T03:30:00.968Z,6.4
2022-09-28T03:39:00.897Z,6.3
2022-09-28T03:41:00.951Z,6.4
2022-09-28T03:48:00.961Z,6.5
2022-09-28T03:49:00.931Z,6.4
2022-09-28T03:52:00.913Z,6.5
2022-09-28T03:53:01.012Z,6.3
2022-09-28T03:55:00.947Z,6.5
2022-09-28T03:56:00.991Z,6.4
2022-09-28T03:58:00.956Z,6.4
2022-09-28T03:59:00.981Z,6.5
2022-09-28T04:02:00.954Z,6.5
2022-09-28T04:05:00.910Z,6.6
2022-09-28T04:06:00.902Z,6.5
2022-09-28T04:07:00.954Z,6.6
2022-09-28T04:10:00.917Z,6.6
2022-09-28T04:11:00.930Z,6.4
2022-09-28T04:12:04.069Z,6.5
2022-09-28T04:13:00.951Z,6.6
2022-09-28T04:15:00.918Z,6.5
2022-09-28T04:16:00.987Z,6.6
2022-09-28T04:18:00.959Z,6.5
2022-09-28T04:20:00.968Z,6.6
2022-09-28T04:24:00.891Z,6.7
2022-09-28T04:25:00.930Z,6.5
2022-09-28T04:27:00.975Z,6.6
2022-09-28T04:30:00.975Z,6.5
2022-09-28T04:31:01.010Z,6.6
2022-09-28T04:33:00.936Z,6.6
2022-09-28T04:34:01.003Z,6.5
2022-09-28T04:36:00.934Z,6.4
2022-09-28T04:40:00.912Z,6.5
2022-09-28T04:41:01.010Z,6.6
2022-09-28T04:43:00.919Z,6.5
2022-09-28T04:44:00.948Z,6.6
2022-09-28T04:46:01.063Z,6.6
2022-09-28T04:50:01.074Z,6.7
2022-09-28T04:54:00.913Z,6.7
2022-09-28T04:55:00.928Z,6.6
2022-09-28T04:58:00.897Z,6.6
2022-09-28T05:00:00.903Z,6.7
2022-09-28T05:02:00.914Z,6.7
2022-09-28T05:05:00.917Z,6.8
2022-09-28T05:06:00.961Z,6.7
2022-09-28T05:11:00.967Z,6.7
2022-09-28T05:13:00.906Z,6.8
2022-09-28T05:16:05.158Z,6.8
2022-09-28T05:17:00.996Z,6.9
2022-09-28T05:18:00.911Z,6.8
2022-09-28T05:20:00.955Z,6.9
2022-09-28T05:21:00.982Z,6.8
2022-09-28T05:23:00.911Z,7
2022-09-28T05:25:00.899Z,6.9
2022-09-28T05:26:00.894Z,6.8
2022-09-28T05:27:00.913Z,6.9
2022-09-28T05:29:00.964Z,6.8
2022-09-28T05:32:01.025Z,7
2022-09-28T05:35:00.927Z,7
2022-09-28T05:37:00.931Z,7.1
2022-09-28T05:42:00.911Z,7.1
2022-09-28T05:46:00.992Z,7.2
2022-09-28T05:48:00.930Z,7.1
2022-09-28T05:50:00.907Z,7.2
2022-09-28T05:51:00.955Z,7.1
2022-09-28T05:55:00.966Z,7.1
2022-09-28T05:57:00.931Z,7.3
2022-09-28T05:59:00.925Z,7.2
2022-09-28T06:01:00.923Z,7.3
2022-09-28T06:02:00.963Z,7.2
2022-09-28T06:03:02.580Z,7.3
2022-09-28T06:07:00.930Z,7.3
2022-09-28T06:10:00.931Z,7.2
2022-09-28T06:12:00.994Z,7.3
2022-09-28T06:15:00.943Z,7.3
2022-09-28T06:18:00.947Z,7.2
2022-09-28T06:19:00.919Z,7.3
2022-09-28T06:23:00.893Z,7.2
2022-09-28T06:24:00.893Z,7.3
2022-09-28T06:26:00.934Z,7.2
2022-09-28T06:33:00.926Z,7.2
2022-09-28T06:34:00.917Z,7.3
2022-09-28T06:36:00.912Z,7.3
2022-09-28T06:38:00.922Z,7.3
2022-09-28T06:40:00.925Z,7.2
2022-09-28T06:41:00.987Z,7.3
2022-09-28T06:43:00.907Z,7.2
2022-09-28T06:44:00.919Z,7.3
2022-09-28T06:47:00.907Z,7.3
2022-09-28T06:48:00.961Z,7.2
2022-09-28T06:50:00.916Z,7.3
2022-09-28T06:51:00.971Z,7.2
2022-09-28T06:53:00.934Z,7.1
2022-09-28T06:54:00.925Z,7.2
2022-09-28T06:57:00.938Z,7.1
2022-09-28T06:59:01.075Z,7.2
2022-09-28T07:00:01.185Z,7.4
2022-09-28T07:02:00.998Z,7.2
2022-09-28T07:04:00.960Z,7.1
2022-09-28T07:06:00.920Z,7.2
2022-09-28T07:07:00.945Z,7.3
2022-09-28T07:12:00.914Z,7.2
2022-09-28T07:13:00.916Z,7.4
2022-09-28T07:14:00.940Z,7.3
2022-09-28T07:16:00.920Z,7.4
2022-09-28T07:17:12.912Z,7.3
2022-09-28T07:18:02.938Z,7.2
2022-09-28T07:19:00.902Z,7.3
2022-09-28T07:20:11.276Z,7.4
2022-09-28T07:22:04.953Z,7.3
2022-09-28T07:25:00.960Z,7.3
2022-09-28T07:29:00.910Z,7.4
2022-09-28T07:34:00.961Z,7.3
2022-09-28T07:36:00.915Z,7.5
2022-09-28T07:38:00.907Z,7.5
2022-09-28T07:40:00.904Z,7.3
2022-09-28T07:41:00.953Z,7.5
2022-09-28T07:43:00.915Z,7.4
2022-09-28T07:44:00.910Z,7.5
2022-09-28T07:47:00.914Z,7.6
2022-09-28T07:48:00.985Z,7.5
2022-09-28T07:56:00.900Z,7.7
2022-09-28T07:57:00.930Z,7.6
2022-09-28T08:00:00.892Z,7.7
2022-09-28T08:04:00.917Z,7.6
2022-09-28T08:05:00.903Z,7.8
2022-09-28T08:07:00.922Z,7.8
2022-09-28T08:10:00.895Z,7.9
2022-09-28T08:11:00.921Z,8
2022-09-28T08:12:00.939Z,7.9
2022-09-28T08:13:02.575Z,8.1
2022-09-28T08:15:00.899Z,7.9
2022-09-28T08:16:00.923Z,8.1
2022-09-28T08:20:00.894Z,8.2
2022-09-28T08:21:00.907Z,8
2022-09-28T08:22:00.905Z,8.1
2022-09-28T08:23:00.968Z,8.2
2022-09-28T08:25:00.906Z,8.2
2022-09-28T08:26:00.981Z,8.3
2022-09-28T08:28:00.967Z,8.2
2022-09-28T08:31:01.053Z,8.4
2022-09-28T08:33:01.000Z,8.4
2022-09-28T08:35:00.910Z,8.6
2022-09-28T08:39:00.954Z,8.6
2022-09-28T08:40:00.949Z,8.7
2022-09-28T08:42:00.948Z,8.8
2022-09-28T08:44:00.956Z,8.7
2022-09-28T08:45:00.973Z,8.9
2022-09-28T08:47:00.930Z,8.8
2022-09-28T08:48:00.914Z,8.9
2022-09-28T08:50:01.029Z,9
2022-09-28T08:53:00.919Z,9.1
2022-09-28T08:56:00.912Z,9.2
2022-09-28T08:57:00.949Z,9.4
2022-09-28T09:00:00.939Z,9.5
2022-09-28T09:01:00.987Z,9.4
2022-09-28T09:02:01.052Z,9.5
2022-09-28T09:06:00.911Z,9.7
2022-09-28T09:09:00.955Z,9.6
2022-09-28T09:11:00.901Z,9.8
2022-09-28T09:12:00.895Z,9.7
2022-09-28T09:13:00.995Z,9.9
2022-09-28T09:14:00.928Z,9.7
2022-09-28T09:15:00.918Z,9.8
2022-09-28T09:18:00.971Z,9.9
2022-09-28T09:21:00.977Z,10
2022-09-28T09:24:00.903Z,10
2022-09-28T09:26:00.946Z,10.1
2022-09-28T09:28:00.892Z,10.1
2022-09-28T09:29:00.892Z,10.2
2022-09-28T09:32:00.940Z,10.1
2022-09-28T09:33:00.963Z,10.2
2022-09-28T09:34:00.971Z,10.1
2022-09-28T09:38:00.911Z,10.3
2022-09-28T09:39:00.929Z,10
2022-09-28T09:40:00.905Z,10.1
2022-09-28T09:41:00.993Z,10
2022-09-28T09:43:00.895Z,9.9
2022-09-28T09:45:00.894Z,9.8
2022-09-28T09:48:00.915Z,9.7
2022-09-28T09:49:00.912Z,9.6
2022-09-28T09:51:00.927Z,9.5
2022-09-28T09:52:01.004Z,9.6
2022-09-28T09:54:00.923Z,9.6
2022-09-28T09:55:00.905Z,9.4
2022-09-28T09:56:00.944Z,9.6
2022-09-28T09:57:00.955Z,9.5
2022-09-28T09:59:00.964Z,9.6
2022-09-28T10:00:00.941Z,9.4
2022-09-28T10:01:00.979Z,9.5
2022-09-28T10:03:00.945Z,9.4
2022-09-28T10:04:00.924Z,9.3
2022-09-28T10:06:00.961Z,9.3
2022-09-28T10:08:00.896Z,9.2
2022-09-28T10:13:00.908Z,9.3
2022-09-28T10:14:00.945Z,9.4
2022-09-28T10:16:00.912Z,9.6
2022-09-28T10:18:00.893Z,9.7
2022-09-28T10:19:00.938Z,9.6
2022-09-28T10:21:00.934Z,9.7
2022-09-28T10:22:00.947Z,9.8
2022-09-28T10:25:00.890Z,9.9
2022-09-28T10:26:00.956Z,9.8
2022-09-28T10:29:00.899Z,9.6
2022-09-28T10:30:00.965Z,9.7
2022-09-28T10:32:00.916Z,9.5
2022-09-28T10:34:00.925Z,9.6
2022-09-28T10:35:00.952Z,9.5
2022-09-28T10:36:00.896Z,9.4
2022-09-28T10:37:00.999Z,9.5
2022-09-28T10:43:00.941Z,9.3
2022-09-28T10:45:00.913Z,9.4
2022-09-28T10:47:00.905Z,9.3
2022-09-28T10:49:00.923Z,9.5
2022-09-28T10:52:00.896Z,9.6
2022-09-28T10:53:00.921Z,9.5
2022-09-28T10:54:00.969Z,9.6
2022-09-28T10:56:00.953Z,9.6
2022-09-28T11:01:00.996Z,9.6
2022-09-28T11:03:00.978Z,9.8
2022-09-28T11:04:00.919Z,9.6
2022-09-28T11:05:00.904Z,9.8
2022-09-28T11:07:00.944Z,9.7
2022-09-28T11:08:00.938Z,9.8
2022-09-28T11:10:00.949Z,9.8
2022-09-28T11:12:00.946Z,9.9
2022-09-28T11:14:00.955Z,10
2022-09-28T11:16:00.909Z,10.1
2022-09-28T11:18:00.944Z,10
2022-09-28T11:20:00.965Z,9.9
2022-09-28T11:21:00.946Z,10
2022-09-28T11:26:00.923Z,10
2022-09-28T11:27:00.910Z,9.9
2022-09-28T11:28:00.945Z,10.1
2022-09-28T11:29:00.940Z,10
2022-09-28T11:33:00.938Z,10.1
2022-09-28T11:34:00.908Z,10
2022-09-28T11:36:00.980Z,10.1
2022-09-28T11:39:00.907Z,10
2022-09-28T11:40:00.906Z,10.2
2022-09-28T11:41:01.025Z,10
2022-09-28T11:42:00.960Z,10.2
2022-09-28T11:46:01.004Z,10.3
2022-09-28T11:48:00.978Z,10.4
2022-09-28T11:50:00.921Z,10.8
2022-09-28T11:51:00.933Z,11.2
2022-09-28T11:53:00.924Z,11.6
2022-09-28T11:54:00.916Z,11.7
2022-09-28T11:56:03.237Z,11.8
2022-09-28T11:57:00.905Z,11.9
2022-09-28T12:00:00.947Z,11.8
2022-09-28T12:01:00.951Z,11.7
2022-09-28T12:03:01.045Z,11.7
2022-09-28T12:04:00.955Z,11.5
2022-09-28T12:06:00.933Z,11.4
2022-09-28T12:07:00.928Z,11.3
2022-09-28T12:09:00.934Z,11.5
2022-09-28T12:11:00.930Z,11.4
2022-09-28T12:12:00.940Z,11.2
2022-09-28T12:14:00.941Z,11.3
2022-09-28T12:16:27.546Z,11.2
2022-09-28T12:20:00.927Z,11.3
2022-09-28T12:21:04.381Z,11.2
2022-09-28T12:24:00.910Z,11.4
2022-09-28T12:26:00.893Z,11.3
2022-09-28T12:27:00.983Z,11.4
2022-09-28T12:29:00.915Z,11.2
2022-09-28T12:31:01.064Z,11.3
2022-09-28T12:32:01.027Z,11.2
2022-09-28T12:33:01.023Z,11
2022-09-28T12:35:00.902Z,11
2022-09-28T12:36:00.945Z,10.9
2022-09-28T12:38:00.911Z,10.8
2022-09-28T12:39:19.282Z,10.6
2022-09-28T12:41:00.925Z,10.5
2022-09-28T12:43:00.926Z,10.6
2022-09-28T12:47:00.990Z,10.8
2022-09-28T12:48:00.957Z,10.7
2022-09-28T12:50:37.410Z,11
2022-09-28T12:51:01.153Z,10.9
2022-09-28T12:53:02.366Z,11.3
2022-09-28T12:54:00.943Z,11.2
2022-09-28T12:55:00.978Z,11.3
2022-09-28T12:57:00.926Z,11.4
2022-09-28T12:58:00.938Z,11.5
2022-09-28T13:00:00.971Z,11.4
2022-09-28T13:03:01.000Z,11.2
2022-09-28T13:05:00.954Z,11.3
2022-09-28T13:08:00.911Z,11.1
2022-09-28T13:09:00.981Z,11
2022-09-28T13:11:04.245Z,11.1
2022-09-28T13:13:00.892Z,11
2022-09-28T13:15:00.908Z,11.2
2022-09-28T13:19:00.909Z,11.3
2022-09-28T13:20:01.084Z,11.2
2022-09-28T13:22:00.918Z,11.2
2022-09-28T13:26:00.912Z,11.3
2022-09-28T13:27:00.953Z,11.2
2022-09-28T13:29:00.956Z,11
2022-09-28T13:30:01.169Z,11.1
2022-09-28T13:32:00.991Z,10.9
2022-09-28T13:33:01.006Z,10.8
2022-09-28T13:35:00.982Z,10.7
2022-09-28T13:38:01.067Z,10.6
2022-09-28T13:42:00.952Z,10.5
2022-09-28T13:44:00.974Z,10.4
2022-09-28T13:47:00.926Z,10.3
2022-09-28T13:51:00.930Z,10.4
2022-09-28T13:53:00.960Z,10.4
2022-09-28T13:56:00.928Z,10.3
2022-09-28T13:58:00.905Z,10.5
2022-09-28T13:59:00.912Z,10.3
2022-09-28T14:00:00.966Z,10.4
2022-09-28T14:01:00.978Z,10.5
2022-09-28T14:03:00.975Z,10.6
2022-09-28T14:07:00.918Z,10.6
2022-09-28T14:08:00.992Z,10.5
2022-09-28T14:09:01.083Z,10.6
2022-09-28T14:13:03.157Z,10.4
2022-09-28T14:17:00.897Z,10.3
2022-09-28T14:20:00.915Z,10.4
2022-09-28T14:22:00.930Z,10.3
2022-09-28T14:23:00.953Z,10.4
2022-09-28T14:27:00.984Z,10.9
2022-09-28T14:28:00.978Z,10.7
2022-09-28T14:31:00.938Z,10.9
2022-09-28T14:32:00.958Z,10.8
2022-09-28T14:34:00.974Z,10.9
2022-09-28T14:36:00.910Z,10.9
2022-09-28T14:37:00.932Z,10.7
2022-09-28T14:40:01.018Z,10.6
2022-09-28T14:42:00.911Z,10.7
2022-09-28T14:46:00.999Z,10.5
2022-09-28T14:47:00.988Z,10.6
2022-09-28T14:51:00.896Z,10.5
2022-09-28T14:55:00.924Z,10.4
2022-09-28T14:58:00.968Z,10.5
2022-09-28T15:02:01.013Z,10.3
2022-09-28T15:04:01.113Z,10.3
2022-09-28T15:06:00.944Z,10.1
2022-09-28T15:07:00.923Z,10.3
2022-09-28T15:08:00.990Z,10.1
2022-09-28T15:10:00.939Z,10
2022-09-28T15:12:00.950Z,10
2022-09-28T15:14:00.955Z,9.8
2022-09-28T15:17:00.943Z,9.9
2022-09-28T15:18:00.967Z,10
2022-09-28T15:21:00.925Z,10.1
2022-09-28T15:26:00.904Z,10
2022-09-28T15:27:00.916Z,10.3
2022-09-28T15:28:00.961Z,10.2
2022-09-28T15:29:00.935Z,10.1
2022-09-28T15:31:00.984Z,10
2022-09-28T15:32:00.922Z,10.1
2022-09-28T15:33:00.938Z,10.2
2022-09-28T15:35:00.920Z,10.1
2022-09-28T15:36:00.915Z,10
2022-09-28T15:39:00.922Z,9.9
2022-09-28T15:40:00.944Z,9.8
2022-09-28T15:42:00.926Z,9.7
2022-09-28T15:43:00.941Z,9.8
2022-09-28T15:45:00.953Z,9.6
2022-09-28T15:47:00.904Z,9.5
2022-09-28T15:48:00.900Z,9.7
2022-09-28T15:49:00.916Z,9.6
2022-09-28T15:50:00.920Z,9.7
2022-09-28T15:51:00.988Z,9.5
2022-09-28T15:52:01.015Z,9.7
2022-09-28T15:53:00.971Z,9.6
2022-09-28T15:54:01.035Z,9.5
2022-09-28T15:56:00.958Z,9.5
2022-09-28T15:59:00.941Z,9.4
2022-09-28T16:00:01.049Z,9.5
2022-09-28T16:02:02.505Z,9.3
2022-09-28T16:03:01.027Z,9.4
2022-09-28T16:04:00.972Z,9.6
2022-09-28T16:06:00.934Z,9.4
2022-09-28T16:07:00.951Z,9.5
2022-09-28T16:09:01.043Z,9.4
2022-09-28T16:11:01.062Z,9.6
2022-09-28T16:17:01.048Z,9.5
2022-09-28T16:19:01.233Z,9.6
2022-09-28T16:22:01.159Z,9.3
2022-09-28T16:23:01.128Z,9.5
2022-09-28T16:26:01.185Z,9.4
2022-09-28T16:29:01.206Z,9.3
2022-09-28T16:30:01.420Z,9.2
2022-09-28T16:33:01.102Z,9.1
2022-09-28T16:35:00.982Z,9.2
2022-09-28T16:38:00.903Z,9.3
2022-09-28T16:39:00.960Z,9.2
2022-09-28T16:41:00.933Z,9.1
2022-09-28T16:43:00.959Z,9
2022-09-28T16:44:01.005Z,9.1
2022-09-28T16:46:01.001Z,9
2022-09-28T16:50:00.982Z,9
2022-09-28T16:53:00.951Z,8.9
2022-09-28T16:55:00.909Z,8.9
2022-09-28T16:57:00.908Z,8.8
2022-09-28T16:59:00.908Z,8.9
2022-09-28T17:00:00.940Z,8.8
2022-09-28T17:02:01.037Z,8.8
2022-09-28T17:06:00.931Z,8.7
2022-09-28T17:08:00.936Z,8.8
2022-09-28T17:10:00.947Z,8.8
2022-09-28T17:13:00.891Z,8.9
2022-09-28T17:14:00.958Z,8.7
2022-09-28T17:16:00.943Z,8.7
2022-09-28T17:18:00.911Z,8.9
2022-09-28T17:19:00.897Z,8.7
2022-09-28T17:20:00.899Z,8.8
2022-09-28T17:23:00.923Z,8.9
2022-09-28T17:24:00.900Z,8.8
2022-09-28T17:25:00.933Z,8.7
2022-09-28T17:28:00.995Z,8.7
2022-09-28T17:30:01.032Z,8.7
2022-09-28T17:34:00.957Z,8.9
2022-09-28T17:36:00.913Z,8.7
2022-09-28T17:37:00.935Z,8.8
2022-09-28T17:38:00.973Z,8.7
2022-09-28T17:40:00.960Z,8.8
2022-09-28T17:43:00.963Z,8.8
2022-09-28T17:45:01.126Z,8.7
2022-09-28T17:47:00.957Z,8.8
2022-09-28T17:49:00.926Z,8.7
2022-09-28T17:50:00.961Z,8.6
2022-09-28T17:53:01.022Z,8.6
2022-09-28T17:54:01.016Z,8.7
2022-09-28T18:00:00.928Z,8.8
2022-09-28T18:02:02.451Z,8.6
2022-09-28T18:03:01.085Z,8.7
2022-09-28T18:05:00.943Z,8.7
2022-09-28T18:06:00.959Z,8.8
2022-09-28T18:07:00.945Z,8.7
2022-09-28T18:08:01.000Z,8.6
2022-09-28T18:10:00.960Z,8.7
2022-09-28T18:11:01.013Z,8.6
2022-09-28T18:13:00.949Z,8.7
2022-09-28T18:16:00.950Z,8.6
2022-09-28T18:18:00.906Z,8.5
2022-09-28T18:20:00.909Z,8.4
2022-09-28T18:21:00.961Z,8.7
2022-09-28T18:23:00.963Z,8.4
2022-09-28T18:24:00.962Z,8.5
2022-09-28T18:28:00.976Z,8.3
2022-09-28T18:33:00.920Z,8.2
2022-09-28T18:34:01.041Z,8.3
2022-09-28T18:36:00.976Z,8.3
2022-09-28T18:40:00.904Z,8.1
2022-09-28T18:41:00.919Z,8.2
2022-09-28T18:42:00.908Z,8.3
2022-09-28T18:43:00.926Z,8.2
2022-09-28T18:46:00.981Z,8.1
2022-09-28T18:47:00.921Z,8.2
2022-09-28T18:52:00.979Z,8.1
2022-09-28T18:54:00.912Z,8.1
2022-09-28T18:58:00.953Z,8.2
2022-09-28T19:00:00.914Z,8.1
2022-09-28T19:02:01.006Z,8.2
2022-09-28T19:03:01.003Z,8.1
2022-09-28T19:07:00.960Z,8
2022-09-28T19:09:00.955Z,8.2
2022-09-28T19:10:01.021Z,8
2022-09-28T19:16:00.993Z,8.1
2022-09-28T19:18:00.952Z,8.1
2022-09-28T19:21:00.947Z,8
2022-09-28T19:24:00.965Z,8.1
2022-09-28T19:25:00.944Z,8
2022-09-28T19:30:00.983Z,8.1
2022-09-28T19:33:00.934Z,8.2
2022-09-28T19:34:00.970Z,8
2022-09-28T19:39:00.947Z,7.9
2022-09-28T19:41:00.996Z,8
2022-09-28T19:43:00.889Z,7.9
2022-09-28T19:44:00.985Z,7.8
2022-09-28T19:46:00.957Z,8
2022-09-28T19:49:00.910Z,7.8
2022-09-28T19:51:00.911Z,7.9
2022-09-28T19:52:14.559Z,7.8
2022-09-28T19:53:00.939Z,7.9
2022-09-28T19:54:00.963Z,7.8
2022-09-28T19:55:00.932Z,7.6
2022-09-28T19:56:00.911Z,7.8
2022-09-28T20:01:00.954Z,7.7
2022-09-28T20:03:00.959Z,7.5
2022-09-28T20:04:00.906Z,7.7
2022-09-28T20:06:00.941Z,7.6
2022-09-28T20:09:00.918Z,7.6
2022-09-28T20:11:00.892Z,7.7
2022-09-28T20:12:00.907Z,7.5
2022-09-28T20:14:01.001Z,7.6
2022-09-28T20:15:00.911Z,7.7
2022-09-28T20:16:00.997Z,7.6
2022-09-28T20:18:00.902Z,7.4
2022-09-28T20:20:00.923Z,7.5
2022-09-28T20:22:00.892Z,7.3
2022-09-28T20:23:00.955Z,7.4
2022-09-28T20:26:00.931Z,7.4
2022-09-28T20:28:00.891Z,7.3
2022-09-28T20:31:01.003Z,7.2
2022-09-28T20:37:00.958Z,7.1
2022-09-28T20:40:00.900Z,7
2022-09-28T20:41:01.071Z,6.9
2022-09-28T20:43:00.946Z,6.8
2022-09-28T20:46:00.950Z,6.8
2022-09-28T20:47:00.910Z,6.9
2022-09-28T20:48:00.891Z,6.8
2022-09-28T20:50:00.945Z,6.7
2022-09-28T20:53:00.902Z,6.7
2022-09-28T20:54:00.894Z,6.8
2022-09-28T20:55:00.919Z,6.7
2022-09-28T20:57:00.904Z,6.6
2022-09-28T20:58:00.916Z,6.7
2022-09-28T21:00:00.926Z,6.6
2022-09-28T21:07:00.951Z,6.5
2022-09-28T21:11:00.936Z,6.4
2022-09-28T21:12:00.937Z,6.5
2022-09-28T21:13:00.935Z,6.4
2022-09-28T21:15:04.989Z,6.4
2022-09-28T21:16:01.049Z,6.5
2022-09-28T21:18:00.896Z,6.3
2022-09-28T21:20:00.900Z,6.4
2022-09-28T21:21:00.891Z,6.2
2022-09-28T21:22:00.967Z,6.3
2022-09-28T21:24:00.963Z,6.4
2022-09-28T21:26:00.901Z,6.5
2022-09-28T21:27:00.908Z,6.1
2022-09-28T21:28:00.907Z,6.4
2022-09-28T21:29:00.939Z,6.3
2022-09-28T21:31:01.094Z,6.4
2022-09-28T21:34:00.990Z,6.3
2022-09-28T21:39:00.899Z,6.4
2022-09-28T21:40:00.898Z,6.2
2022-09-28T21:41:01.113Z,6.3
2022-09-28T21:43:00.937Z,6.4
2022-09-28T21:46:01.029Z,6.4
2022-09-28T21:49:00.967Z,6.5
2022-09-28T21:51:00.918Z,6.6
2022-09-28T21:52:00.998Z,6.5
2022-09-28T21:54:00.897Z,6.4
2022-09-28T21:55:00.945Z,6.5
2022-09-28T21:56:00.939Z,6.6
2022-09-28T22:00:00.991Z,6.6
2022-09-28T22:06:00.912Z,6.5
2022-09-28T22:07:00.889Z,6.7
2022-09-28T22:08:00.919Z,6.5
2022-09-28T22:09:00.972Z,6.6
2022-09-28T22:12:00.944Z,6.6
2022-09-28T22:14:00.970Z,6.4
2022-09-28T22:16:00.980Z,6.4
2022-09-28T22:18:00.940Z,6.4
2022-09-28T22:20:00.934Z,6.4
2022-09-28T22:22:00.910Z,6.3
2022-09-28T22:24:01.054Z,6.4
2022-09-28T22:25:00.943Z,6.3
2022-09-28T22:27:00.914Z,6.2
2022-09-28T22:28:00.902Z,6.3
2022-09-28T22:30:00.918Z,6.4
2022-09-28T22:31:01.046Z,6.3
2022-09-28T22:35:00.908Z,6.1
2022-09-28T22:37:00.953Z,6.2
2022-09-28T22:39:00.896Z,6.2
2022-09-28T22:41:00.945Z,6
2022-09-28T22:44:00.902Z,6
2022-09-28T22:45:00.915Z,5.9
2022-09-28T22:46:00.908Z,6
2022-09-28T22:47:00.901Z,6.1
2022-09-28T22:48:00.903Z,5.9
2022-09-28T22:50:01.013Z,5.8
2022-09-28T22:51:00.893Z,5.9
2022-09-28T22:52:00.900Z,5.8
2022-09-28T22:54:00.933Z,5.9
2022-09-28T22:55:00.948Z,5.8
2022-09-28T22:59:00.916Z,5.8
2022-09-28T23:02:00.937Z,5.7
2022-09-28T23:04:00.907Z,5.6
2022-09-28T23:07:00.906Z,5.7
2022-09-28T23:08:00.945Z,5.5
2022-09-28T23:12:00.926Z,5.5
2022-09-28T23:14:00.940Z,5.6
2022-09-28T23:15:00.905Z,5.4
2022-09-28T23:16:00.960Z,5.5
2022-09-28T23:18:00.908Z,5.5
2022-09-28T23:20:00.891Z,5.4
2022-09-28T23:22:00.910Z,5.3
2022-09-28T23:24:00.935Z,5.4
2022-09-28T23:26:00.967Z,5.2
2022-09-28T23:27:00.958Z,5.4
2022-09-28T23:29:00.912Z,5.3
2022-09-28T23:31:00.961Z,5.2
2022-09-28T23:33:00.946Z,5.3
2022-09-28T23:35:00.930Z,5.2
2022-09-28T23:37:00.905Z,5.3
2022-09-28T23:38:00.967Z,5.1
2022-09-28T23:40:00.960Z,5.1
2022-09-28T23:42:00.912Z,5.1
2022-09-28T23:44:00.898Z,5
2022-09-28T23:46:00.990Z,5.1
2022-09-28T23:48:00.928Z,5.1
2022-09-28T23:52:00.930Z,5
2022-09-28T23:53:00.915Z,4.9
2022-09-28T23:55:00.961Z,5
2022-09-28T23:59:00.912Z,4.8
